sensor_id;sensor_type;location;lat;lon;timestamp;pressure;altitude;pressure_sealevel;temperature;humidity
23118;BME280;11728;50.624;6.014;2023-04-30T00:04:23;98882.47;;;9.55;93.72
23118;BME280;11728;50.624;6.014;2023-04-30T00:09:44;98877.16;;;9.56;94.08
23118;BME280;11728;50.624;6.014;2023-04-30T00:15:05;98877.28;;;9.47;94.31
23118;BME280;11728;50.624;6.014;2023-04-30T00:20:26;98873.88;;;9.32;94.81
23118;BME280;11728;50.624;6.014;2023-04-30T00:25:47;98877.50;;;9.23;95.02
23118;BME280;11728;50.624;6.014;2023-04-30T00:31:08;98876.75;;;9.02;96.06
23118;BME280;11728;50.624;6.014;2023-04-30T00:36:28;98869.03;;;8.80;97.01
23118;BME280;11728;50.624;6.014;2023-04-30T00:41:50;98877.00;;;8.68;97.58
23118;BME280;11728;50.624;6.014;2023-04-30T00:47:11;98877.94;;;8.58;98.25
23118;BME280;11728;50.624;6.014;2023-04-30T00:52:32;98878.00;;;8.47;98.70
23118;BME280;11728;50.624;6.014;2023-04-30T00:57:53;98884.19;;;8.39;98.49
23118;BME280;11728;50.624;6.014;2023-04-30T01:03:14;98874.59;;;8.29;98.97
23118;BME280;11728;50.624;6.014;2023-04-30T01:08:35;98869.34;;;8.19;98.93
23118;BME280;11728;50.624;6.014;2023-04-30T01:14:12;98866.75;;;8.04;99.79
23118;BME280;11728;50.624;6.014;2023-04-30T01:19:42;98862.38;;;8.00;100.00
23118;BME280;11728;50.624;6.014;2023-04-30T01:25:34;98865.03;;;7.97;100.00
23118;BME280;11728;50.624;6.014;2023-04-30T01:31:02;98865.06;;;7.89;100.00
23118;BME280;11728;50.624;6.014;2023-04-30T01:36:33;98869.44;;;7.83;100.00
23118;BME280;11728;50.624;6.014;2023-04-30T01:53:07;98862.53;;;7.49;100.00
23118;BME280;11728;50.624;6.014;2023-04-30T01:58:29;98862.53;;;7.42;100.00
23118;BME280;11728;50.624;6.014;2023-04-30T02:03:51;98865.16;;;7.40;100.00
23118;BME280;11728;50.624;6.014;2023-04-30T02:09:12;98866.94;;;7.35;100.00
23118;BME280;11728;50.624;6.014;2023-04-30T02:14:32;98873.03;;;7.27;100.00
23118;BME280;11728;50.624;6.014;2023-04-30T02:19:53;98881.81;;;7.20;100.00
23118;BME280;11728;50.624;6.014;2023-04-30T02:25:14;98878.34;;;7.18;100.00
23118;BME280;11728;50.624;6.014;2023-04-30T02:30:35;98873.06;;;7.12;100.00
23118;BME280;11728;50.624;6.014;2023-04-30T02:35:58;98881.81;;;7.08;100.00
23118;BME280;11728;50.624;6.014;2023-04-30T02:41:20;98878.31;;;7.03;100.00
23118;BME280;11728;50.624;6.014;2023-04-30T02:46:41;98869.56;;;6.98;100.00
23118;BME280;11728;50.624;6.014;2023-04-30T02:52:01;98866.94;;;6.86;100.00
23118;BME280;11728;50.624;6.014;2023-04-30T02:57:22;98864.31;;;6.74;100.00
23118;BME280;11728;50.624;6.014;2023-04-30T03:02:43;98862.53;;;6.70;100.00
23118;BME280;11728;50.624;6.014;2023-04-30T03:08:04;98852.03;;;6.64;100.00
23118;BME280;11728;50.624;6.014;2023-04-30T03:13:25;98855.50;;;6.60;100.00
23118;BME280;11728;50.624;6.014;2023-04-30T03:18:48;98857.28;;;6.58;100.00
23118;BME280;11728;50.624;6.014;2023-04-30T03:24:09;98866.00;;;6.51;100.00
23118;BME280;11728;50.624;6.014;2023-04-30T03:29:30;98855.50;;;6.47;100.00
23118;BME280;11728;50.624;6.014;2023-04-30T03:34:51;98860.72;;;6.45;100.00
23118;BME280;11728;50.624;6.014;2023-04-30T03:40:11;98862.47;;;6.45;100.00
23118;BME280;11728;50.624;6.014;2023-04-30T03:45:32;98856.34;;;6.38;100.00
23118;BME280;11728;50.624;6.014;2023-04-30T03:50:53;98853.69;;;6.26;100.00
23118;BME280;11728;50.624;6.014;2023-04-30T03:56:14;98856.28;;;6.14;100.00
23118;BME280;11728;50.624;6.014;2023-04-30T04:01:35;98860.66;;;6.12;100.00
23118;BME280;11728;50.624;6.014;2023-04-30T04:06:56;98860.63;;;6.08;100.00
23118;BME280;11728;50.624;6.014;2023-04-30T04:12:16;98862.34;;;6.05;100.00
23118;BME280;11728;50.624;6.014;2023-04-30T04:17:37;98859.72;;;6.02;100.00
23118;BME280;11728;50.624;6.014;2023-04-30T04:22:58;98857.97;;;6.02;100.00
23118;BME280;11728;50.624;6.014;2023-04-30T04:28:18;98862.34;;;6.05;100.00
23118;BME280;11728;50.624;6.014;2023-04-30T04:33:39;98865.00;;;6.10;100.00
23118;BME280;11728;50.624;6.014;2023-04-30T04:39:00;98854.53;;;6.21;100.00
23118;BME280;11728;50.624;6.014;2023-04-30T04:44:24;98853.69;;;6.32;100.00
23118;BME280;11728;50.624;6.014;2023-04-30T04:49:45;98858.13;;;6.42;100.00
23118;BME280;11728;50.624;6.014;2023-04-30T04:55:06;98859.91;;;6.63;100.00
23118;BME280;11728;50.624;6.014;2023-04-30T05:00:27;98864.28;;;6.77;100.00
23118;BME280;11728;50.624;6.014;2023-04-30T05:05:48;98865.16;;;6.86;100.00
23118;BME280;11728;50.624;6.014;2023-04-30T05:11:08;98862.56;;;7.01;100.00
23118;BME280;11728;50.624;6.014;2023-04-30T05:16:29;98875.69;;;7.19;100.00
23118;BME280;11728;50.624;6.014;2023-04-30T05:21:50;98868.69;;;7.42;100.00
23118;BME280;11728;50.624;6.014;2023-04-30T05:27:11;98863.34;;;7.69;100.00
23118;BME280;11728;50.624;6.014;2023-04-30T05:32:31;98865.03;;;8.00;100.00
23118;BME280;11728;50.624;6.014;2023-04-30T05:37:52;98871.91;;;8.38;100.00
23118;BME280;11728;50.624;6.014;2023-04-30T05:43:13;98874.25;;;8.86;99.49
23118;BME280;11728;50.624;6.014;2023-04-30T05:48:34;98870.34;;;9.37;97.63
23118;BME280;11728;50.624;6.014;2023-04-30T05:53:54;98873.41;;;9.84;96.44
23118;BME280;11728;50.624;6.014;2023-04-30T05:59:16;98878.22;;;10.23;95.28
23118;BME280;11728;50.624;6.014;2023-04-30T06:04:37;98874.19;;;10.63;94.21
23118;BME280;11728;50.624;6.014;2023-04-30T06:09:58;98873.69;;;10.95;93.10
23118;BME280;11728;50.624;6.014;2023-04-30T06:15:19;98872.19;;;11.35;91.64
23118;BME280;11728;50.624;6.014;2023-04-30T06:20:40;98867.03;;;11.79;90.55
23118;BME280;11728;50.624;6.014;2023-04-30T06:26:00;98865.16;;;12.29;89.30
23118;BME280;11728;50.624;6.014;2023-04-30T06:31:21;98865.06;;;12.74;87.42
23118;BME280;11728;50.624;6.014;2023-04-30T06:36:42;98863.19;;;13.17;86.31
23118;BME280;11728;50.624;6.014;2023-04-30T06:42:03;98861.25;;;13.60;84.45
23118;BME280;11728;50.624;6.014;2023-04-30T06:47:24;98859.91;;;14.10;82.77
23118;BME280;11728;50.624;6.014;2023-04-30T06:52:44;98856.41;;;14.69;80.70
23118;BME280;11728;50.624;6.014;2023-04-30T06:58:05;98859.09;;;15.24;78.92
23118;BME280;11728;50.624;6.014;2023-04-30T07:03:26;98861.53;;;15.57;78.03
23118;BME280;11728;50.624;6.014;2023-04-30T07:08:47;98857.75;;;16.14;75.20
23118;BME280;11728;50.624;6.014;2023-04-30T07:14:08;98859.78;;;16.32;72.70
23118;BME280;11728;50.624;6.014;2023-04-30T07:19:29;98857.09;;;16.56;70.61
23118;BME280;11728;50.624;6.014;2023-04-30T07:24:50;98847.66;;;17.15;68.50
23118;BME280;11728;50.624;6.014;2023-04-30T07:30:11;98850.31;;;17.79;63.96
23118;BME280;11728;50.624;6.014;2023-04-30T07:35:32;98861.44;;;18.50;59.09
23118;BME280;11728;50.624;6.014;2023-04-30T07:40:52;98846.56;;;18.81;54.79
23118;BME280;11728;50.624;6.014;2023-04-30T07:46:13;98838.09;;;19.45;52.82
23118;BME280;11728;50.624;6.014;2023-04-30T07:51:34;98847.78;;;18.55;52.24
23118;BME280;11728;50.624;6.014;2023-04-30T07:56:55;98847.88;;;18.72;51.01
23118;BME280;11728;50.624;6.014;2023-04-30T08:02:16;98848.94;;;19.96;48.59
23118;BME280;11728;50.624;6.014;2023-04-30T08:07:37;98849.16;;;20.08;47.46
23118;BME280;11728;50.624;6.014;2023-04-30T08:12:59;98847.00;;;20.48;46.67
23118;BME280;11728;50.624;6.014;2023-04-30T08:18:19;98851.78;;;21.23;44.77
23118;BME280;11728;50.624;6.014;2023-04-30T08:23:40;98852.81;;;21.21;43.86
23118;BME280;11728;50.624;6.014;2023-04-30T08:29:01;98847.47;;;22.12;42.58
23118;BME280;11728;50.624;6.014;2023-04-30T08:34:22;98843.50;;;22.33;41.60
23118;BME280;11728;50.624;6.014;2023-04-30T08:39:42;98855.66;;;23.23;40.61
23118;BME280;11728;50.624;6.014;2023-04-30T08:45:04;98850.69;;;23.57;39.28
23118;BME280;11728;50.624;6.014;2023-04-30T08:50:31;98849.59;;;22.92;36.27
23118;BME280;11728;50.624;6.014;2023-04-30T08:55:55;98849.09;;;22.71;36.13
23118;BME280;11728;50.624;6.014;2023-04-30T09:01:15;98842.97;;;22.97;35.57
23118;BME280;11728;50.624;6.014;2023-04-30T09:06:36;98841.53;;;23.74;34.87
23118;BME280;11728;50.624;6.014;2023-04-30T09:12:14;98833.00;;;24.06;34.52
23118;BME280;11728;50.624;6.014;2023-04-30T09:17:37;98840.28;;;23.92;34.57
23118;BME280;11728;50.624;6.014;2023-04-30T09:23:08;98842.41;;;23.60;33.28
23118;BME280;11728;50.624;6.014;2023-04-30T09:28:29;98833.00;;;24.06;33.43
23118;BME280;11728;50.624;6.014;2023-04-30T09:33:51;98833.16;;;23.91;32.21
23118;BME280;11728;50.624;6.014;2023-04-30T09:39:13;98831.25;;;24.05;32.03
23118;BME280;11728;50.624;6.014;2023-04-30T09:44:38;98823.47;;;24.52;31.63
23118;BME280;11728;50.624;6.014;2023-04-30T09:50:00;98824.50;;;25.36;31.12
23118;BME280;11728;50.624;6.014;2023-04-30T09:55:23;98810.75;;;25.39;30.55
23118;BME280;11728;50.624;6.014;2023-04-30T10:00:45;98808.22;;;25.84;30.18
23118;BME280;11728;50.624;6.014;2023-04-30T10:06:08;98803.28;;;25.66;29.51
23118;BME280;11728;50.624;6.014;2023-04-30T10:11:33;98808.47;;;25.69;29.21
23118;BME280;11728;50.624;6.014;2023-04-30T10:17:10;98806.50;;;26.18;28.44
23118;BME280;11728;50.624;6.014;2023-04-30T10:22:33;98800.22;;;26.51;29.11
23118;BME280;11728;50.624;6.014;2023-04-30T10:27:55;98789.19;;;27.20;27.99
23118;BME280;11728;50.624;6.014;2023-04-30T10:33:30;98789.69;;;27.14;27.53
23118;BME280;11728;50.624;6.014;2023-04-30T10:38:52;98787.34;;;27.10;27.26
23118;BME280;11728;50.624;6.014;2023-04-30T10:44:14;98779.94;;;27.01;27.17
23118;BME280;11728;50.624;6.014;2023-04-30T10:49:35;98768.22;;;27.22;27.11
23118;BME280;11728;50.624;6.014;2023-04-30T10:54:56;98758.56;;;27.40;26.75
23118;BME280;11728;50.624;6.014;2023-04-30T11:00:17;98750.97;;;27.23;26.19
23118;BME280;11728;50.624;6.014;2023-04-30T11:05:39;98753.59;;;27.56;26.07
23118;BME280;11728;50.624;6.014;2023-04-30T11:11:00;98748.69;;;27.61;25.94
23118;BME280;11728;50.624;6.014;2023-04-30T11:16:28;98736.66;;;27.74;24.75
23118;BME280;11728;50.624;6.014;2023-04-30T11:27:26;98725.69;;;27.65;25.66
23118;BME280;11728;50.624;6.014;2023-04-30T11:32:48;98724.25;;;27.50;24.63
23118;BME280;11728;50.624;6.014;2023-04-30T11:38:11;98719.28;;;27.55;25.08
23118;BME280;11728;50.624;6.014;2023-04-30T11:43:33;98718.97;;;27.80;24.65
23118;BME280;11728;50.624;6.014;2023-04-30T11:48:55;98708.19;;;27.89;24.22
23118;BME280;11728;50.624;6.014;2023-04-30T11:54:16;98699.66;;;27.20;24.26
23118;BME280;11728;50.624;6.014;2023-04-30T11:59:41;98712.25;;;26.99;24.80
23118;BME280;11728;50.624;6.014;2023-04-30T12:05:01;98703.06;;;27.33;25.60
23118;BME280;11728;50.624;6.014;2023-04-30T12:10:23;98687.38;;;28.40;25.58
23118;BME280;11728;50.624;6.014;2023-04-30T12:15:57;98684.47;;;27.91;24.64
23118;BME280;11728;50.624;6.014;2023-04-30T12:21:20;98682.34;;;28.35;25.87
23118;BME280;11728;50.624;6.014;2023-04-30T12:26:43;98679.06;;;27.60;26.03
23118;BME280;11728;50.624;6.014;2023-04-30T12:32:04;98682.63;;;27.29;26.05
23118;BME280;11728;50.624;6.014;2023-04-30T12:37:26;98673.22;;;27.33;25.96
23118;BME280;11728;50.624;6.014;2023-04-30T12:42:46;98676.19;;;27.93;26.18
23118;BME280;11728;50.624;6.014;2023-04-30T12:48:07;98669.91;;;27.92;26.21
23118;BME280;11728;50.624;6.014;2023-04-30T12:53:28;98664.16;;;28.26;26.08
23118;BME280;11728;50.624;6.014;2023-04-30T12:58:49;98664.13;;;27.86;25.95
23118;BME280;11728;50.624;6.014;2023-04-30T13:04:10;98647.78;;;27.76;26.27
23118;BME280;11728;50.624;6.014;2023-04-30T13:09:35;98648.78;;;27.33;26.33
23118;BME280;11728;50.624;6.014;2023-04-30T13:14:56;98646.25;;;26.56;27.02
23118;BME280;11728;50.624;6.014;2023-04-30T13:20:17;98643.59;;;25.08;27.58
23118;BME280;11728;50.624;6.014;2023-04-30T13:25:38;98631.63;;;25.81;28.08
23118;BME280;11728;50.624;6.014;2023-04-30T13:30:59;98623.94;;;26.09;27.73
23118;BME280;11728;50.624;6.014;2023-04-30T13:36:22;98616.97;;;25.38;28.28
23118;BME280;11728;50.624;6.014;2023-04-30T13:41:42;98614.41;;;24.78;28.62
23118;BME280;11728;50.624;6.014;2023-04-30T13:47:04;98605.44;;;25.92;28.91
23118;BME280;11728;50.624;6.014;2023-04-30T13:52:25;98614.78;;;25.20;29.09
23118;BME280;11728;50.624;6.014;2023-04-30T13:57:45;98604.16;;;25.40;28.75
23118;BME280;11728;50.624;6.014;2023-04-30T14:03:06;98601.38;;;25.18;28.77
23118;BME280;11728;50.624;6.014;2023-04-30T14:08:27;98597.28;;;23.93;29.36
23118;BME280;11728;50.624;6.014;2023-04-30T14:13:49;98599.19;;;23.66;30.13
23118;BME280;11728;50.624;6.014;2023-04-30T14:19:10;98594.97;;;23.37;30.69
23118;BME280;11728;50.624;6.014;2023-04-30T14:24:31;98588.78;;;23.11;30.86
23118;BME280;11728;50.624;6.014;2023-04-30T14:29:52;98582.44;;;22.71;31.52
23118;BME280;11728;50.624;6.014;2023-04-30T14:35:12;98574.47;;;22.96;30.38
23118;BME280;11728;50.624;6.014;2023-04-30T14:40:33;98582.69;;;23.58;31.01
23118;BME280;11728;50.624;6.014;2023-04-30T14:45:55;98569.47;;;24.28;30.58
23118;BME280;11728;50.624;6.014;2023-04-30T14:51:15;98569.66;;;24.38;30.25
23118;BME280;11728;50.624;6.014;2023-04-30T14:56:36;98565.09;;;23.40;30.82
23118;BME280;11728;50.624;6.014;2023-04-30T15:01:57;98556.47;;;23.48;31.79
23118;BME280;11728;50.624;6.014;2023-04-30T15:07:18;98547.94;;;23.66;31.61
23118;BME280;11728;50.624;6.014;2023-04-30T15:12:40;98550.19;;;24.22;31.60
23118;BME280;11728;50.624;6.014;2023-04-30T15:18:01;98548.75;;;24.29;30.22
23118;BME280;11728;50.624;6.014;2023-04-30T15:23:25;98545.13;;;24.05;30.20
23118;BME280;11728;50.624;6.014;2023-04-30T15:28:46;98532.06;;;23.49;31.80
23118;BME280;11728;50.624;6.014;2023-04-30T15:34:07;98534.22;;;23.07;31.75
23118;BME280;11728;50.624;6.014;2023-04-30T15:39:27;98536.34;;;22.76;32.84
23118;BME280;11728;50.624;6.014;2023-04-30T15:44:48;98531.50;;;22.42;33.16
23118;BME280;11728;50.624;6.014;2023-04-30T15:50:09;98527.56;;;21.93;34.46
23118;BME280;11728;50.624;6.014;2023-04-30T15:55:30;98512.06;;;22.11;34.20
23118;BME280;11728;50.624;6.014;2023-04-30T16:00:51;98509.81;;;22.17;34.38
23118;BME280;11728;50.624;6.014;2023-04-30T16:06:13;98503.03;;;22.38;34.09
23118;BME280;11728;50.624;6.014;2023-04-30T16:11:34;98507.47;;;22.25;34.52
23118;BME280;11728;50.624;6.014;2023-04-30T16:16:55;98505.88;;;21.68;36.49
23118;BME280;11728;50.624;6.014;2023-04-30T16:22:16;98503.13;;;21.96;37.04
23118;BME280;11728;50.624;6.014;2023-04-30T16:27:38;98500.59;;;21.81;37.24
23118;BME280;11728;50.624;6.014;2023-04-30T16:32:58;98501.84;;;21.62;36.82
23118;BME280;11728;50.624;6.014;2023-04-30T16:38:20;98490.88;;;21.65;36.32
23118;BME280;11728;50.624;6.014;2023-04-30T16:43:42;98494.69;;;21.19;35.89
23118;BME280;11728;50.624;6.014;2023-04-30T16:49:03;98499.19;;;20.75;36.21
23118;BME280;11728;50.624;6.014;2023-04-30T16:54:24;98490.31;;;20.14;36.54
23118;BME280;11728;50.624;6.014;2023-04-30T16:59:45;98490.13;;;19.87;36.55
23118;BME280;11728;50.624;6.014;2023-04-30T17:05:06;98479.22;;;19.74;37.11
23118;BME280;11728;50.624;6.014;2023-04-30T17:10:27;98482.50;;;19.64;38.28
23118;BME280;11728;50.624;6.014;2023-04-30T17:15:49;98484.81;;;19.54;39.56
23118;BME280;11728;50.624;6.014;2023-04-30T17:21:10;98470.56;;;19.54;40.33
23118;BME280;11728;50.624;6.014;2023-04-30T17:26:31;98474.88;;;19.41;40.80
23118;BME280;11728;50.624;6.014;2023-04-30T17:31:51;98464.31;;;19.38;40.98
23118;BME280;11728;50.624;6.014;2023-04-30T17:37:12;98469.88;;;19.18;41.20
23118;BME280;11728;50.624;6.014;2023-04-30T17:42:33;98471.47;;;19.05;41.26
23118;BME280;11728;50.624;6.014;2023-04-30T17:47:54;98467.53;;;18.95;41.25
23118;BME280;11728;50.624;6.014;2023-04-30T17:53:15;98472.44;;;18.70;41.67
23118;BME280;11728;50.624;6.014;2023-04-30T17:58:36;98474.34;;;18.52;42.16
23118;BME280;11728;50.624;6.014;2023-04-30T18:03:58;98472.69;;;18.32;42.90
23118;BME280;11728;50.624;6.014;2023-04-30T18:09:19;98463.25;;;18.07;43.90
23118;BME280;11728;50.624;6.014;2023-04-30T18:14:40;98468.22;;;17.79;44.59
23118;BME280;11728;50.624;6.014;2023-04-30T18:20:01;98475.53;;;17.57;45.23
23118;BME280;11728;50.624;6.014;2023-04-30T18:25:21;98472.41;;;17.48;45.79
23118;BME280;11728;50.624;6.014;2023-04-30T18:30:43;98473.19;;;17.31;46.55
23118;BME280;11728;50.624;6.014;2023-04-30T18:36:04;98470.47;;;17.13;47.29
23118;BME280;11728;50.624;6.014;2023-04-30T18:41:26;98463.38;;;16.93;47.95
23118;BME280;11728;50.624;6.014;2023-04-30T18:46:47;98475.53;;;16.81;48.21
23118;BME280;11728;50.624;6.014;2023-04-30T18:52:09;98466.47;;;16.65;48.79
23118;BME280;11728;50.624;6.014;2023-04-30T18:57:30;98472.47;;;16.50;49.42
23118;BME280;11728;50.624;6.014;2023-04-30T19:02:51;98479.06;;;16.41;49.61
23118;BME280;11728;50.624;6.014;2023-04-30T19:08:11;98478.66;;;16.30;49.85
23118;BME280;11728;50.624;6.014;2023-04-30T19:13:32;98480.22;;;16.15;50.40
23118;BME280;11728;50.624;6.014;2023-04-30T19:18:53;98487.03;;;16.00;50.76
23118;BME280;11728;50.624;6.014;2023-04-30T19:24:14;98489.22;;;15.91;51.09
23118;BME280;11728;50.624;6.014;2023-04-30T19:29:35;98495.00;;;15.79;51.54
23118;BME280;11728;50.624;6.014;2023-04-30T19:34:58;98495.94;;;15.56;52.46
23118;BME280;11728;50.624;6.014;2023-04-30T19:40:19;98503.59;;;15.42;52.80
23118;BME280;11728;50.624;6.014;2023-04-30T19:45:49;98507.53;;;15.33;53.47
23118;BME280;11728;50.624;6.014;2023-04-30T19:51:10;98506.09;;;15.23;53.77
23118;BME280;11728;50.624;6.014;2023-04-30T19:56:31;98508.41;;;15.09;54.40
23118;BME280;11728;50.624;6.014;2023-04-30T20:01:52;98504.34;;;14.99;54.91
23118;BME280;11728;50.624;6.014;2023-04-30T20:07:12;98497.63;;;14.89;55.09
23118;BME280;11728;50.624;6.014;2023-04-30T20:12:33;98505.25;;;14.75;55.78
23118;BME280;11728;50.624;6.014;2023-04-30T20:17:54;98503.34;;;14.54;56.50
23118;BME280;11728;50.624;6.014;2023-04-30T20:23:16;98501.44;;;14.33;57.52
23118;BME280;11728;50.624;6.014;2023-04-30T20:28:37;98500.00;;;14.23;57.58
23118;BME280;11728;50.624;6.014;2023-04-30T20:33:58;98498.88;;;14.03;58.77
23118;BME280;11728;50.624;6.014;2023-04-30T20:39:18;98490.84;;;13.79;59.99
23118;BME280;11728;50.624;6.014;2023-04-30T20:44:40;98493.94;;;13.65;60.74
23118;BME280;11728;50.624;6.014;2023-04-30T20:50:00;98497.13;;;13.49;61.40
23118;BME280;11728;50.624;6.014;2023-04-30T20:55:21;98498.44;;;13.36;61.97
23118;BME280;11728;50.624;6.014;2023-04-30T21:00:42;98501.44;;;13.24;62.55
23118;BME280;11728;50.624;6.014;2023-04-30T21:06:04;98494.69;;;13.12;62.92
23118;BME280;11728;50.624;6.014;2023-04-30T21:11:25;98488.00;;;13.01;63.62
23118;BME280;11728;50.624;6.014;2023-04-30T21:16:47;98484.88;;;12.86;64.65
23118;BME280;11728;50.624;6.014;2023-04-30T21:22:08;98474.63;;;12.74;65.41
23118;BME280;11728;50.624;6.014;2023-04-30T21:27:29;98473.28;;;12.59;66.21
23118;BME280;11728;50.624;6.014;2023-04-30T21:32:49;98477.00;;;12.52;66.67
23118;BME280;11728;50.624;6.014;2023-04-30T21:38:17;98475.50;;;12.42;67.23
23118;BME280;11728;50.624;6.014;2023-04-30T21:43:41;98471.38;;;12.32;67.77
23118;BME280;11728;50.624;6.014;2023-04-30T21:49:02;98467.22;;;12.23;68.24
23118;BME280;11728;50.624;6.014;2023-04-30T21:54:23;98466.59;;;12.13;68.77
23118;BME280;11728;50.624;6.014;2023-04-30T21:59:43;98462.44;;;12.05;69.06
23118;BME280;11728;50.624;6.014;2023-04-30T22:05:05;98460.88;;;11.96;69.88
23118;BME280;11728;50.624;6.014;2023-04-30T22:10:26;98450.50;;;11.89;70.42
23118;BME280;11728;50.624;6.014;2023-04-30T22:15:47;98453.31;;;11.83;70.88
23118;BME280;11728;50.624;6.014;2023-04-30T22:21:07;98447.06;;;11.84;71.23
23118;BME280;11728;50.624;6.014;2023-04-30T22:26:28;98441.88;;;11.81;72.06
23118;BME280;11728;50.624;6.014;2023-04-30T22:31:49;98436.09;;;11.99;71.66
23118;BME280;11728;50.624;6.014;2023-04-30T22:37:10;98437.59;;;12.09;71.32
23118;BME280;11728;50.624;6.014;2023-04-30T22:42:30;98428.41;;;12.22;70.77
23118;BME280;11728;50.624;6.014;2023-04-30T22:47:52;98428.25;;;12.27;71.10
23118;BME280;11728;50.624;6.014;2023-04-30T22:53:13;98427.88;;;12.41;70.51
23118;BME280;11728;50.624;6.014;2023-04-30T22:58:34;98421.38;;;12.52;70.27
23118;BME280;11728;50.624;6.014;2023-04-30T23:03:55;98419.56;;;12.54;69.93
23118;BME280;11728;50.624;6.014;2023-04-30T23:09:15;98418.81;;;12.49;70.30
23118;BME280;11728;50.624;6.014;2023-04-30T23:14:37;98407.94;;;12.58;69.86
23118;BME280;11728;50.624;6.014;2023-04-30T23:19:57;98407.78;;;12.64;69.95
23118;BME280;11728;50.624;6.014;2023-04-30T23:25:18;98407.78;;;12.64;69.89
23118;BME280;11728;50.624;6.014;2023-04-30T23:30:39;98397.09;;;12.67;69.84
23118;BME280;11728;50.624;6.014;2023-04-30T23:36:00;98399.69;;;12.69;70.04
23118;BME280;11728;50.624;6.014;2023-04-30T23:41:21;98397.72;;;12.75;69.58
23118;BME280;11728;50.624;6.014;2023-04-30T23:46:42;98384.41;;;12.78;69.30
23118;BME280;11728;50.624;6.014;2023-04-30T23:52:03;98389.78;;;12.75;69.02
23118;BME280;11728;50.624;6.014;2023-04-30T23:57:23;98380.00;;;12.77;68.65
